sensor_id;sensor_type;location;lat;lon;timestamp;P1;durP1;ratioP1;P2;durP2;ratioP2
26303;SDS011;70693;48.680;8.890;2023-12-22T00:01:11;1.05;;;0.43;;
26303;SDS011;70693;48.680;8.890;2023-12-22T00:03:40;1.77;;;0.80;;
26303;SDS011;70693;48.680;8.890;2023-12-22T00:06:07;2.15;;;0.63;;
26303;SDS011;70693;48.680;8.890;2023-12-22T00:08:32;2.88;;;0.60;;
26303;SDS011;70693;48.680;8.890;2023-12-22T00:10:58;0.60;;;0.32;;
26303;SDS011;70693;48.680;8.890;2023-12-22T00:13:24;1.00;;;0.60;;
26303;SDS011;70693;48.680;8.890;2023-12-22T00:15:49;1.88;;;0.50;;
26303;SDS011;70693;48.680;8.890;2023-12-22T00:18:15;1.23;;;0.60;;
26303;SDS011;70693;48.680;8.890;2023-12-22T00:20:41;2.67;;;0.70;;
26303;SDS011;70693;48.680;8.890;2023-12-22T00:23:06;2.58;;;0.70;;
26303;SDS011;70693;48.680;8.890;2023-12-22T00:25:32;2.25;;;0.82;;
26303;SDS011;70693;48.680;8.890;2023-12-22T00:27:57;1.60;;;0.57;;
26303;SDS011;70693;48.680;8.890;2023-12-22T00:30:23;2.58;;;0.90;;
26303;SDS011;70693;48.680;8.890;2023-12-22T00:32:49;1.45;;;0.70;;
26303;SDS011;70693;48.680;8.890;2023-12-22T00:35:15;2.40;;;0.80;;
26303;SDS011;70693;48.680;8.890;2023-12-22T00:37:40;3.67;;;1.10;;
26303;SDS011;70693;48.680;8.890;2023-12-22T00:40:07;3.13;;;0.90;;
26303;SDS011;70693;48.680;8.890;2023-12-22T00:42:34;1.92;;;0.70;;
26303;SDS011;70693;48.680;8.890;2023-12-22T00:45:00;1.52;;;0.73;;
26303;SDS011;70693;48.680;8.890;2023-12-22T00:47:25;1.17;;;0.73;;
26303;SDS011;70693;48.680;8.890;2023-12-22T00:49:51;1.70;;;0.60;;
26303;SDS011;70693;48.680;8.890;2023-12-22T00:52:16;2.40;;;0.70;;
26303;SDS011;70693;48.680;8.890;2023-12-22T00:54:42;2.20;;;0.95;;
26303;SDS011;70693;48.680;8.890;2023-12-22T00:57:08;3.25;;;0.73;;
26303;SDS011;70693;48.680;8.890;2023-12-22T00:59:33;3.05;;;1.05;;
26303;SDS011;70693;48.680;8.890;2023-12-22T01:01:59;3.13;;;0.80;;
26303;SDS011;70693;48.680;8.890;2023-12-22T01:04:25;2.35;;;1.00;;
26303;SDS011;70693;48.680;8.890;2023-12-22T01:06:50;1.70;;;0.73;;
26303;SDS011;70693;48.680;8.890;2023-12-22T01:09:16;2.28;;;0.75;;
26303;SDS011;70693;48.680;8.890;2023-12-22T01:11:44;2.65;;;0.70;;
26303;SDS011;70693;48.680;8.890;2023-12-22T01:14:10;2.90;;;0.85;;
26303;SDS011;70693;48.680;8.890;2023-12-22T01:16:38;1.90;;;0.88;;
26303;SDS011;70693;48.680;8.890;2023-12-22T01:19:04;2.08;;;0.93;;
26303;SDS011;70693;48.680;8.890;2023-12-22T01:21:30;1.00;;;0.60;;
26303;SDS011;70693;48.680;8.890;2023-12-22T01:23:56;3.65;;;1.02;;
26303;SDS011;70693;48.680;8.890;2023-12-22T01:26:23;1.75;;;0.70;;
26303;SDS011;70693;48.680;8.890;2023-12-22T01:28:49;1.88;;;0.73;;
26303;SDS011;70693;48.680;8.890;2023-12-22T01:31:15;1.92;;;0.80;;
26303;SDS011;70693;48.680;8.890;2023-12-22T01:33:41;2.88;;;0.77;;
26303;SDS011;70693;48.680;8.890;2023-12-22T01:36:07;1.67;;;0.63;;
26303;SDS011;70693;48.680;8.890;2023-12-22T01:38:33;2.55;;;0.70;;
26303;SDS011;70693;48.680;8.890;2023-12-22T01:40:58;2.92;;;0.80;;
26303;SDS011;70693;48.680;8.890;2023-12-22T01:43:24;1.15;;;0.60;;
26303;SDS011;70693;48.680;8.890;2023-12-22T01:45:55;1.48;;;0.60;;
26303;SDS011;70693;48.680;8.890;2023-12-22T01:48:22;3.30;;;0.90;;
26303;SDS011;70693;48.680;8.890;2023-12-22T01:50:49;2.78;;;0.80;;
26303;SDS011;70693;48.680;8.890;2023-12-22T01:53:17;2.22;;;0.60;;
26303;SDS011;70693;48.680;8.890;2023-12-22T01:55:45;2.13;;;0.73;;
26303;SDS011;70693;48.680;8.890;2023-12-22T01:58:12;2.08;;;0.60;;
26303;SDS011;70693;48.680;8.890;2023-12-22T02:00:37;1.45;;;0.60;;
26303;SDS011;70693;48.680;8.890;2023-12-22T02:03:03;2.03;;;0.60;;
26303;SDS011;70693;48.680;8.890;2023-12-22T02:05:29;0.98;;;0.60;;
26303;SDS011;70693;48.680;8.890;2023-12-22T02:07:55;1.65;;;0.60;;
26303;SDS011;70693;48.680;8.890;2023-12-22T02:10:20;2.08;;;0.70;;
26303;SDS011;70693;48.680;8.890;2023-12-22T02:12:46;1.70;;;0.63;;
26303;SDS011;70693;48.680;8.890;2023-12-22T02:15:12;2.50;;;0.70;;
26303;SDS011;70693;48.680;8.890;2023-12-22T02:17:39;1.55;;;0.70;;
26303;SDS011;70693;48.680;8.890;2023-12-22T02:20:13;2.17;;;0.70;;
26303;SDS011;70693;48.680;8.890;2023-12-22T02:22:39;0.88;;;0.40;;
26303;SDS011;70693;48.680;8.890;2023-12-22T02:25:05;1.55;;;0.60;;
26303;SDS011;70693;48.680;8.890;2023-12-22T02:27:49;3.45;;;0.70;;
26303;SDS011;70693;48.680;8.890;2023-12-22T02:30:19;1.83;;;0.98;;
26303;SDS011;70693;48.680;8.890;2023-12-22T02:32:52;2.13;;;0.77;;
26303;SDS011;70693;48.680;8.890;2023-12-22T02:35:24;1.73;;;0.73;;
26303;SDS011;70693;48.680;8.890;2023-12-22T02:37:51;2.53;;;0.73;;
26303;SDS011;70693;48.680;8.890;2023-12-22T02:40:19;1.77;;;0.60;;
26303;SDS011;70693;48.680;8.890;2023-12-22T02:42:45;2.15;;;0.70;;
26303;SDS011;70693;48.680;8.890;2023-12-22T02:45:15;2.35;;;0.80;;
26303;SDS011;70693;48.680;8.890;2023-12-22T02:47:42;1.98;;;0.70;;
26303;SDS011;70693;48.680;8.890;2023-12-22T02:50:08;2.38;;;0.80;;
26303;SDS011;70693;48.680;8.890;2023-12-22T02:52:35;1.83;;;0.73;;
26303;SDS011;70693;48.680;8.890;2023-12-22T02:55:01;2.40;;;0.80;;
26303;SDS011;70693;48.680;8.890;2023-12-22T02:57:27;2.20;;;0.73;;
26303;SDS011;70693;48.680;8.890;2023-12-22T02:59:53;1.48;;;0.45;;
26303;SDS011;70693;48.680;8.890;2023-12-22T03:02:18;2.90;;;0.68;;
26303;SDS011;70693;48.680;8.890;2023-12-22T03:04:44;1.67;;;0.65;;
26303;SDS011;70693;48.680;8.890;2023-12-22T03:07:11;1.40;;;0.47;;
26303;SDS011;70693;48.680;8.890;2023-12-22T03:09:37;0.85;;;0.52;;
26303;SDS011;70693;48.680;8.890;2023-12-22T03:12:03;2.20;;;0.70;;
26303;SDS011;70693;48.680;8.890;2023-12-22T03:14:31;1.13;;;0.43;;
26303;SDS011;70693;48.680;8.890;2023-12-22T03:17:04;2.40;;;0.63;;
26303;SDS011;70693;48.680;8.890;2023-12-22T03:19:31;2.25;;;0.60;;
26303;SDS011;70693;48.680;8.890;2023-12-22T03:21:58;2.65;;;0.77;;
26303;SDS011;70693;48.680;8.890;2023-12-22T03:24:24;1.98;;;0.50;;
26303;SDS011;70693;48.680;8.890;2023-12-22T03:26:50;1.60;;;0.50;;
26303;SDS011;70693;48.680;8.890;2023-12-22T03:29:16;2.22;;;0.82;;
26303;SDS011;70693;48.680;8.890;2023-12-22T03:31:43;3.80;;;0.70;;
26303;SDS011;70693;48.680;8.890;2023-12-22T03:34:09;1.63;;;0.60;;
26303;SDS011;70693;48.680;8.890;2023-12-22T03:36:35;2.13;;;0.80;;
26303;SDS011;70693;48.680;8.890;2023-12-22T03:39:00;3.03;;;0.60;;
26303;SDS011;70693;48.680;8.890;2023-12-22T03:41:26;2.50;;;0.60;;
26303;SDS011;70693;48.680;8.890;2023-12-22T03:43:54;1.65;;;0.60;;
26303;SDS011;70693;48.680;8.890;2023-12-22T03:46:19;2.42;;;0.80;;
26303;SDS011;70693;48.680;8.890;2023-12-22T03:48:45;2.53;;;0.80;;
26303;SDS011;70693;48.680;8.890;2023-12-22T03:51:11;3.38;;;0.68;;
26303;SDS011;70693;48.680;8.890;2023-12-22T03:53:38;1.77;;;0.77;;
26303;SDS011;70693;48.680;8.890;2023-12-22T03:56:03;2.05;;;0.70;;
26303;SDS011;70693;48.680;8.890;2023-12-22T03:58:29;2.75;;;0.60;;
26303;SDS011;70693;48.680;8.890;2023-12-22T04:00:55;2.88;;;0.80;;
26303;SDS011;70693;48.680;8.890;2023-12-22T04:03:21;2.20;;;0.90;;
26303;SDS011;70693;48.680;8.890;2023-12-22T04:05:47;2.92;;;0.80;;
26303;SDS011;70693;48.680;8.890;2023-12-22T04:08:13;2.05;;;0.68;;
26303;SDS011;70693;48.680;8.890;2023-12-22T04:10:38;3.55;;;0.68;;
26303;SDS011;70693;48.680;8.890;2023-12-22T04:13:04;2.22;;;0.73;;
26303;SDS011;70693;48.680;8.890;2023-12-22T04:15:29;3.20;;;0.93;;
26303;SDS011;70693;48.680;8.890;2023-12-22T04:17:55;3.95;;;0.80;;
26303;SDS011;70693;48.680;8.890;2023-12-22T04:20:21;2.30;;;0.90;;
26303;SDS011;70693;48.680;8.890;2023-12-22T04:22:46;1.23;;;0.60;;
26303;SDS011;70693;48.680;8.890;2023-12-22T04:25:12;2.53;;;0.70;;
26303;SDS011;70693;48.680;8.890;2023-12-22T04:27:37;2.25;;;0.63;;
26303;SDS011;70693;48.680;8.890;2023-12-22T04:30:03;3.38;;;0.90;;
26303;SDS011;70693;48.680;8.890;2023-12-22T04:32:29;1.83;;;0.70;;
26303;SDS011;70693;48.680;8.890;2023-12-22T04:34:55;3.17;;;0.80;;
26303;SDS011;70693;48.680;8.890;2023-12-22T04:37:20;3.70;;;0.77;;
26303;SDS011;70693;48.680;8.890;2023-12-22T04:39:46;1.90;;;0.75;;
26303;SDS011;70693;48.680;8.890;2023-12-22T04:42:11;1.50;;;0.55;;
26303;SDS011;70693;48.680;8.890;2023-12-22T04:44:37;3.10;;;0.70;;
26303;SDS011;70693;48.680;8.890;2023-12-22T04:47:03;1.75;;;0.90;;
26303;SDS011;70693;48.680;8.890;2023-12-22T04:49:28;1.95;;;0.70;;
26303;SDS011;70693;48.680;8.890;2023-12-22T04:51:55;2.95;;;1.00;;
26303;SDS011;70693;48.680;8.890;2023-12-22T04:54:20;3.63;;;0.90;;
26303;SDS011;70693;48.680;8.890;2023-12-22T04:56:46;0.90;;;0.43;;
26303;SDS011;70693;48.680;8.890;2023-12-22T04:59:11;3.97;;;0.95;;
26303;SDS011;70693;48.680;8.890;2023-12-22T05:01:37;2.15;;;0.77;;
26303;SDS011;70693;48.680;8.890;2023-12-22T05:04:03;1.13;;;0.55;;
26303;SDS011;70693;48.680;8.890;2023-12-22T05:06:28;2.45;;;0.75;;
26303;SDS011;70693;48.680;8.890;2023-12-22T05:08:54;4.10;;;0.98;;
26303;SDS011;70693;48.680;8.890;2023-12-22T05:11:21;2.97;;;0.65;;
26303;SDS011;70693;48.680;8.890;2023-12-22T05:13:47;3.60;;;1.23;;
26303;SDS011;70693;48.680;8.890;2023-12-22T05:16:13;3.22;;;0.70;;
26303;SDS011;70693;48.680;8.890;2023-12-22T05:18:38;2.15;;;0.88;;
26303;SDS011;70693;48.680;8.890;2023-12-22T05:21:04;3.17;;;0.90;;
26303;SDS011;70693;48.680;8.890;2023-12-22T05:23:30;3.40;;;0.93;;
26303;SDS011;70693;48.680;8.890;2023-12-22T05:25:55;3.10;;;0.70;;
26303;SDS011;70693;48.680;8.890;2023-12-22T05:28:21;2.75;;;0.90;;
26303;SDS011;70693;48.680;8.890;2023-12-22T05:30:47;2.85;;;0.82;;
26303;SDS011;70693;48.680;8.890;2023-12-22T05:33:12;3.50;;;0.90;;
26303;SDS011;70693;48.680;8.890;2023-12-22T05:35:38;1.10;;;0.57;;
26303;SDS011;70693;48.680;8.890;2023-12-22T05:38:04;4.38;;;1.02;;
26303;SDS011;70693;48.680;8.890;2023-12-22T05:40:30;2.83;;;0.85;;
26303;SDS011;70693;48.680;8.890;2023-12-22T05:42:56;2.30;;;0.88;;
26303;SDS011;70693;48.680;8.890;2023-12-22T05:45:24;3.42;;;0.90;;
26303;SDS011;70693;48.680;8.890;2023-12-22T05:47:50;3.63;;;1.15;;
26303;SDS011;70693;48.680;8.890;2023-12-22T05:50:16;1.80;;;0.95;;
26303;SDS011;70693;48.680;8.890;2023-12-22T05:52:42;2.33;;;0.77;;
26303;SDS011;70693;48.680;8.890;2023-12-22T05:55:11;4.57;;;1.08;;
26303;SDS011;70693;48.680;8.890;2023-12-22T05:57:36;2.85;;;0.90;;
26303;SDS011;70693;48.680;8.890;2023-12-22T06:00:04;3.38;;;0.80;;
26303;SDS011;70693;48.680;8.890;2023-12-22T06:02:32;4.00;;;0.90;;
26303;SDS011;70693;48.680;8.890;2023-12-22T06:04:58;5.82;;;1.10;;
26303;SDS011;70693;48.680;8.890;2023-12-22T06:07:24;3.42;;;1.00;;
26303;SDS011;70693;48.680;8.890;2023-12-22T06:09:51;3.33;;;1.00;;
26303;SDS011;70693;48.680;8.890;2023-12-22T06:12:16;5.03;;;1.30;;
26303;SDS011;70693;48.680;8.890;2023-12-22T06:14:42;3.60;;;1.05;;
26303;SDS011;70693;48.680;8.890;2023-12-22T06:17:07;4.25;;;1.20;;
26303;SDS011;70693;48.680;8.890;2023-12-22T06:19:34;3.95;;;1.10;;
26303;SDS011;70693;48.680;8.890;2023-12-22T06:22:00;3.35;;;0.95;;
26303;SDS011;70693;48.680;8.890;2023-12-22T06:24:26;2.58;;;0.90;;
26303;SDS011;70693;48.680;8.890;2023-12-22T06:26:52;3.58;;;1.10;;
26303;SDS011;70693;48.680;8.890;2023-12-22T06:29:18;4.00;;;1.25;;
26303;SDS011;70693;48.680;8.890;2023-12-22T06:31:43;4.60;;;1.33;;
26303;SDS011;70693;48.680;8.890;2023-12-22T06:34:09;5.75;;;1.02;;
26303;SDS011;70693;48.680;8.890;2023-12-22T06:36:35;6.78;;;1.30;;
26303;SDS011;70693;48.680;8.890;2023-12-22T06:39:00;3.58;;;1.00;;
26303;SDS011;70693;48.680;8.890;2023-12-22T06:41:26;2.38;;;0.98;;
26303;SDS011;70693;48.680;8.890;2023-12-22T06:43:54;4.68;;;1.00;;
26303;SDS011;70693;48.680;8.890;2023-12-22T06:46:21;4.22;;;1.20;;
26303;SDS011;70693;48.680;8.890;2023-12-22T06:48:48;4.50;;;1.15;;
26303;SDS011;70693;48.680;8.890;2023-12-22T06:51:17;3.42;;;1.13;;
26303;SDS011;70693;48.680;8.890;2023-12-22T06:53:44;3.40;;;1.30;;
26303;SDS011;70693;48.680;8.890;2023-12-22T06:56:17;3.78;;;1.25;;
26303;SDS011;70693;48.680;8.890;2023-12-22T06:58:44;3.08;;;1.17;;
26303;SDS011;70693;48.680;8.890;2023-12-22T07:01:11;4.63;;;1.10;;
26303;SDS011;70693;48.680;8.890;2023-12-22T07:03:37;4.00;;;1.38;;
26303;SDS011;70693;48.680;8.890;2023-12-22T07:06:03;4.00;;;1.30;;
26303;SDS011;70693;48.680;8.890;2023-12-22T07:08:29;4.93;;;1.45;;
26303;SDS011;70693;48.680;8.890;2023-12-22T07:10:54;4.28;;;1.10;;
26303;SDS011;70693;48.680;8.890;2023-12-22T07:13:21;4.78;;;1.30;;
26303;SDS011;70693;48.680;8.890;2023-12-22T07:15:46;4.13;;;1.20;;
26303;SDS011;70693;48.680;8.890;2023-12-22T07:18:12;4.28;;;1.23;;
26303;SDS011;70693;48.680;8.890;2023-12-22T07:20:38;2.83;;;0.82;;
26303;SDS011;70693;48.680;8.890;2023-12-22T07:23:04;3.22;;;0.90;;
26303;SDS011;70693;48.680;8.890;2023-12-22T07:25:34;4.95;;;1.20;;
26303;SDS011;70693;48.680;8.890;2023-12-22T07:28:01;4.03;;;1.00;;
26303;SDS011;70693;48.680;8.890;2023-12-22T07:30:27;3.42;;;1.05;;
26303;SDS011;70693;48.680;8.890;2023-12-22T07:32:52;3.92;;;1.15;;
26303;SDS011;70693;48.680;8.890;2023-12-22T07:35:18;3.38;;;1.13;;
26303;SDS011;70693;48.680;8.890;2023-12-22T07:37:44;3.78;;;1.15;;
26303;SDS011;70693;48.680;8.890;2023-12-22T07:40:10;2.75;;;0.90;;
26303;SDS011;70693;48.680;8.890;2023-12-22T07:42:36;4.45;;;1.35;;
26303;SDS011;70693;48.680;8.890;2023-12-22T07:45:02;3.40;;;0.95;;
26303;SDS011;70693;48.680;8.890;2023-12-22T07:47:29;2.35;;;0.90;;
26303;SDS011;70693;48.680;8.890;2023-12-22T07:49:55;3.45;;;1.00;;
26303;SDS011;70693;48.680;8.890;2023-12-22T07:52:20;4.60;;;1.10;;
26303;SDS011;70693;48.680;8.890;2023-12-22T07:54:46;4.40;;;1.25;;
26303;SDS011;70693;48.680;8.890;2023-12-22T07:57:12;3.30;;;1.20;;
26303;SDS011;70693;48.680;8.890;2023-12-22T07:59:38;4.78;;;1.05;;
26303;SDS011;70693;48.680;8.890;2023-12-22T08:02:04;3.13;;;1.13;;
26303;SDS011;70693;48.680;8.890;2023-12-22T08:04:29;3.85;;;1.05;;
26303;SDS011;70693;48.680;8.890;2023-12-22T08:06:55;4.38;;;1.48;;
26303;SDS011;70693;48.680;8.890;2023-12-22T08:09:21;4.28;;;1.00;;
26303;SDS011;70693;48.680;8.890;2023-12-22T08:11:48;3.33;;;1.02;;
26303;SDS011;70693;48.680;8.890;2023-12-22T08:14:17;5.45;;;1.80;;
26303;SDS011;70693;48.680;8.890;2023-12-22T08:16:44;4.43;;;1.20;;
26303;SDS011;70693;48.680;8.890;2023-12-22T08:19:09;3.95;;;1.42;;
26303;SDS011;70693;48.680;8.890;2023-12-22T08:21:35;5.55;;;1.40;;
26303;SDS011;70693;48.680;8.890;2023-12-22T08:24:01;5.72;;;1.10;;
26303;SDS011;70693;48.680;8.890;2023-12-22T08:26:26;3.63;;;1.20;;
26303;SDS011;70693;48.680;8.890;2023-12-22T08:28:52;7.53;;;1.30;;
26303;SDS011;70693;48.680;8.890;2023-12-22T08:31:18;5.65;;;1.48;;
26303;SDS011;70693;48.680;8.890;2023-12-22T08:33:43;4.00;;;1.33;;
26303;SDS011;70693;48.680;8.890;2023-12-22T08:36:10;5.40;;;1.50;;
26303;SDS011;70693;48.680;8.890;2023-12-22T08:38:36;4.53;;;1.60;;
26303;SDS011;70693;48.680;8.890;2023-12-22T08:41:05;4.32;;;1.25;;
26303;SDS011;70693;48.680;8.890;2023-12-22T08:43:35;3.47;;;1.35;;
26303;SDS011;70693;48.680;8.890;2023-12-22T08:46:03;6.05;;;1.80;;
26303;SDS011;70693;48.680;8.890;2023-12-22T08:48:29;5.88;;;1.58;;
26303;SDS011;70693;48.680;8.890;2023-12-22T08:50:55;5.85;;;1.85;;
26303;SDS011;70693;48.680;8.890;2023-12-22T08:53:20;7.13;;;1.52;;
26303;SDS011;70693;48.680;8.890;2023-12-22T08:55:46;8.38;;;1.60;;
26303;SDS011;70693;48.680;8.890;2023-12-22T08:58:11;7.50;;;1.83;;
26303;SDS011;70693;48.680;8.890;2023-12-22T09:00:37;6.22;;;1.77;;
26303;SDS011;70693;48.680;8.890;2023-12-22T09:03:03;5.53;;;1.63;;
26303;SDS011;70693;48.680;8.890;2023-12-22T09:05:29;6.22;;;2.13;;
26303;SDS011;70693;48.680;8.890;2023-12-22T09:07:54;6.95;;;1.60;;
26303;SDS011;70693;48.680;8.890;2023-12-22T09:10:20;7.55;;;1.67;;
26303;SDS011;70693;48.680;8.890;2023-12-22T09:12:46;6.38;;;1.67;;
26303;SDS011;70693;48.680;8.890;2023-12-22T09:15:11;7.07;;;2.03;;
26303;SDS011;70693;48.680;8.890;2023-12-22T09:17:38;7.10;;;2.03;;
26303;SDS011;70693;48.680;8.890;2023-12-22T09:20:04;7.22;;;1.58;;
26303;SDS011;70693;48.680;8.890;2023-12-22T09:22:30;8.18;;;2.08;;
26303;SDS011;70693;48.680;8.890;2023-12-22T09:24:55;9.90;;;1.60;;
26303;SDS011;70693;48.680;8.890;2023-12-22T09:27:21;3.55;;;1.23;;
26303;SDS011;70693;48.680;8.890;2023-12-22T09:29:47;9.13;;;1.83;;
26303;SDS011;70693;48.680;8.890;2023-12-22T09:32:12;5.72;;;1.88;;
26303;SDS011;70693;48.680;8.890;2023-12-22T09:34:38;4.45;;;1.80;;
26303;SDS011;70693;48.680;8.890;2023-12-22T09:37:05;7.20;;;1.85;;
26303;SDS011;70693;48.680;8.890;2023-12-22T09:39:31;4.55;;;1.90;;
26303;SDS011;70693;48.680;8.890;2023-12-22T09:41:56;4.57;;;1.45;;
26303;SDS011;70693;48.680;8.890;2023-12-22T09:44:22;4.95;;;1.75;;
26303;SDS011;70693;48.680;8.890;2023-12-22T09:46:49;8.07;;;1.77;;
26303;SDS011;70693;48.680;8.890;2023-12-22T09:49:18;6.90;;;2.13;;
26303;SDS011;70693;48.680;8.890;2023-12-22T09:51:45;4.82;;;1.60;;
26303;SDS011;70693;48.680;8.890;2023-12-22T09:54:11;5.32;;;2.05;;
26303;SDS011;70693;48.680;8.890;2023-12-22T09:56:38;7.25;;;1.90;;
26303;SDS011;70693;48.680;8.890;2023-12-22T09:59:11;4.95;;;1.60;;
26303;SDS011;70693;48.680;8.890;2023-12-22T10:01:40;6.13;;;1.90;;
26303;SDS011;70693;48.680;8.890;2023-12-22T10:04:11;5.68;;;1.60;;
26303;SDS011;70693;48.680;8.890;2023-12-22T10:06:40;4.57;;;1.50;;
26303;SDS011;70693;48.680;8.890;2023-12-22T10:09:06;5.97;;;1.92;;
26303;SDS011;70693;48.680;8.890;2023-12-22T10:11:34;6.03;;;1.70;;
26303;SDS011;70693;48.680;8.890;2023-12-22T10:14:02;6.55;;;2.00;;
26303;SDS011;70693;48.680;8.890;2023-12-22T10:16:28;4.57;;;1.55;;
26303;SDS011;70693;48.680;8.890;2023-12-22T10:18:54;4.25;;;1.70;;
26303;SDS011;70693;48.680;8.890;2023-12-22T10:21:20;4.88;;;1.60;;
26303;SDS011;70693;48.680;8.890;2023-12-22T10:23:46;3.83;;;1.60;;
26303;SDS011;70693;48.680;8.890;2023-12-22T10:26:11;4.70;;;1.65;;
26303;SDS011;70693;48.680;8.890;2023-12-22T10:28:37;5.18;;;1.55;;
26303;SDS011;70693;48.680;8.890;2023-12-22T10:31:03;5.15;;;1.48;;
26303;SDS011;70693;48.680;8.890;2023-12-22T10:33:31;4.40;;;1.50;;
26303;SDS011;70693;48.680;8.890;2023-12-22T10:36:00;5.88;;;1.55;;
26303;SDS011;70693;48.680;8.890;2023-12-22T10:38:32;5.30;;;1.60;;
26303;SDS011;70693;48.680;8.890;2023-12-22T10:40:59;5.20;;;1.90;;
26303;SDS011;70693;48.680;8.890;2023-12-22T10:43:24;3.85;;;1.40;;
26303;SDS011;70693;48.680;8.890;2023-12-22T10:45:53;4.80;;;1.45;;
26303;SDS011;70693;48.680;8.890;2023-12-22T10:48:19;5.68;;;1.77;;
26303;SDS011;70693;48.680;8.890;2023-12-22T10:50:44;5.75;;;1.70;;
26303;SDS011;70693;48.680;8.890;2023-12-22T10:53:12;5.30;;;1.50;;
26303;SDS011;70693;48.680;8.890;2023-12-22T10:55:38;4.70;;;1.67;;
26303;SDS011;70693;48.680;8.890;2023-12-22T10:58:04;4.40;;;1.40;;
26303;SDS011;70693;48.680;8.890;2023-12-22T11:00:31;3.45;;;1.55;;
26303;SDS011;70693;48.680;8.890;2023-12-22T11:03:00;4.72;;;1.50;;
26303;SDS011;70693;48.680;8.890;2023-12-22T11:05:28;3.67;;;1.23;;
26303;SDS011;70693;48.680;8.890;2023-12-22T11:07:57;4.13;;;1.75;;
26303;SDS011;70693;48.680;8.890;2023-12-22T11:10:28;5.70;;;1.42;;
26303;SDS011;70693;48.680;8.890;2023-12-22T11:12:57;2.13;;;1.13;;
26303;SDS011;70693;48.680;8.890;2023-12-22T11:15:23;3.55;;;1.40;;
26303;SDS011;70693;48.680;8.890;2023-12-22T11:17:52;3.63;;;1.52;;
26303;SDS011;70693;48.680;8.890;2023-12-22T11:20:22;3.90;;;1.40;;
26303;SDS011;70693;48.680;8.890;2023-12-22T11:22:49;3.00;;;1.13;;
26303;SDS011;70693;48.680;8.890;2023-12-22T11:25:16;4.75;;;1.33;;
26303;SDS011;70693;48.680;8.890;2023-12-22T11:27:43;3.28;;;1.30;;
26303;SDS011;70693;48.680;8.890;2023-12-22T11:30:12;4.38;;;1.40;;
26303;SDS011;70693;48.680;8.890;2023-12-22T11:32:39;3.63;;;1.25;;
26303;SDS011;70693;48.680;8.890;2023-12-22T11:35:05;4.38;;;1.40;;
26303;SDS011;70693;48.680;8.890;2023-12-22T11:37:32;4.15;;;1.17;;
26303;SDS011;70693;48.680;8.890;2023-12-22T11:40:01;3.47;;;1.50;;
26303;SDS011;70693;48.680;8.890;2023-12-22T11:42:28;3.42;;;1.20;;
26303;SDS011;70693;48.680;8.890;2023-12-22T11:45:01;3.00;;;1.20;;
26303;SDS011;70693;48.680;8.890;2023-12-22T11:47:27;3.13;;;1.10;;
26303;SDS011;70693;48.680;8.890;2023-12-22T11:49:54;3.15;;;1.40;;
26303;SDS011;70693;48.680;8.890;2023-12-22T11:52:27;3.70;;;1.25;;
26303;SDS011;70693;48.680;8.890;2023-12-22T11:54:57;3.15;;;1.20;;
26303;SDS011;70693;48.680;8.890;2023-12-22T12:00:09;2.28;;;0.85;;
26303;SDS011;70693;48.680;8.890;2023-12-22T12:03:03;2.95;;;0.93;;
26303;SDS011;70693;48.680;8.890;2023-12-22T12:05:31;2.47;;;1.10;;
26303;SDS011;70693;48.680;8.890;2023-12-22T12:08:02;2.15;;;1.00;;
26303;SDS011;70693;48.680;8.890;2023-12-22T12:13:07;3.33;;;0.95;;
26303;SDS011;70693;48.680;8.890;2023-12-22T12:15:34;2.80;;;1.10;;
26303;SDS011;70693;48.680;8.890;2023-12-22T12:18:00;3.40;;;1.40;;
26303;SDS011;70693;48.680;8.890;2023-12-22T12:20:27;1.58;;;0.90;;
26303;SDS011;70693;48.680;8.890;2023-12-22T12:22:53;2.55;;;1.08;;
26303;SDS011;70693;48.680;8.890;2023-12-22T12:25:21;1.33;;;0.70;;
26303;SDS011;70693;48.680;8.890;2023-12-22T12:27:50;2.72;;;0.93;;
26303;SDS011;70693;48.680;8.890;2023-12-22T12:30:26;1.70;;;0.80;;
26303;SDS011;70693;48.680;8.890;2023-12-22T12:32:52;2.08;;;0.85;;
26303;SDS011;70693;48.680;8.890;2023-12-22T12:35:18;1.75;;;0.82;;
26303;SDS011;70693;48.680;8.890;2023-12-22T12:37:44;3.42;;;1.40;;
26303;SDS011;70693;48.680;8.890;2023-12-22T12:40:12;2.88;;;1.00;;
26303;SDS011;70693;48.680;8.890;2023-12-22T12:42:43;2.10;;;0.82;;
26303;SDS011;70693;48.680;8.890;2023-12-22T12:45:09;2.08;;;0.98;;
26303;SDS011;70693;48.680;8.890;2023-12-22T12:47:35;1.27;;;0.80;;
26303;SDS011;70693;48.680;8.890;2023-12-22T12:50:01;2.33;;;1.15;;
26303;SDS011;70693;48.680;8.890;2023-12-22T12:52:28;2.45;;;0.88;;
26303;SDS011;70693;48.680;8.890;2023-12-22T12:54:54;3.33;;;1.08;;
26303;SDS011;70693;48.680;8.890;2023-12-22T12:57:20;1.98;;;0.80;;
26303;SDS011;70693;48.680;8.890;2023-12-22T12:59:47;1.55;;;0.80;;
26303;SDS011;70693;48.680;8.890;2023-12-22T13:02:14;1.90;;;1.05;;
26303;SDS011;70693;48.680;8.890;2023-12-22T13:04:40;2.42;;;0.70;;
26303;SDS011;70693;48.680;8.890;2023-12-22T13:07:06;2.08;;;0.90;;
26303;SDS011;70693;48.680;8.890;2023-12-22T13:09:32;1.60;;;0.88;;
26303;SDS011;70693;48.680;8.890;2023-12-22T13:12:01;1.38;;;0.60;;
26303;SDS011;70693;48.680;8.890;2023-12-22T13:14:28;1.98;;;0.85;;
26303;SDS011;70693;48.680;8.890;2023-12-22T13:16:54;1.75;;;0.90;;
26303;SDS011;70693;48.680;8.890;2023-12-22T13:19:21;2.03;;;1.00;;
26303;SDS011;70693;48.680;8.890;2023-12-22T13:21:49;2.90;;;0.90;;
26303;SDS011;70693;48.680;8.890;2023-12-22T13:24:15;1.52;;;0.80;;
26303;SDS011;70693;48.680;8.890;2023-12-22T13:26:42;2.15;;;0.80;;
26303;SDS011;70693;48.680;8.890;2023-12-22T13:29:09;0.73;;;0.50;;
26303;SDS011;70693;48.680;8.890;2023-12-22T13:31:39;1.50;;;0.75;;
26303;SDS011;70693;48.680;8.890;2023-12-22T13:34:12;1.13;;;0.50;;
26303;SDS011;70693;48.680;8.890;2023-12-22T13:36:39;2.05;;;0.60;;
26303;SDS011;70693;48.680;8.890;2023-12-22T13:39:07;0.98;;;0.60;;
26303;SDS011;70693;48.680;8.890;2023-12-22T13:41:39;1.15;;;0.60;;
26303;SDS011;70693;48.680;8.890;2023-12-22T13:44:07;1.60;;;0.70;;
26303;SDS011;70693;48.680;8.890;2023-12-22T13:46:33;3.03;;;0.60;;
26303;SDS011;70693;48.680;8.890;2023-12-22T13:49:02;0.98;;;0.57;;
26303;SDS011;70693;48.680;8.890;2023-12-22T13:51:38;0.88;;;0.63;;
26303;SDS011;70693;48.680;8.890;2023-12-22T13:54:08;1.45;;;0.68;;
26303;SDS011;70693;48.680;8.890;2023-12-22T13:56:35;0.65;;;0.60;;
26303;SDS011;70693;48.680;8.890;2023-12-22T13:59:01;1.23;;;0.50;;
26303;SDS011;70693;48.680;8.890;2023-12-22T14:01:28;0.90;;;0.50;;
26303;SDS011;70693;48.680;8.890;2023-12-22T14:03:54;1.13;;;0.60;;
26303;SDS011;70693;48.680;8.890;2023-12-22T14:06:22;1.08;;;0.68;;
26303;SDS011;70693;48.680;8.890;2023-12-22T14:08:49;1.10;;;0.60;;
26303;SDS011;70693;48.680;8.890;2023-12-22T14:11:14;1.02;;;0.45;;
26303;SDS011;70693;48.680;8.890;2023-12-22T14:13:40;0.40;;;0.28;;
26303;SDS011;70693;48.680;8.890;2023-12-22T14:16:06;0.47;;;0.32;;
26303;SDS011;70693;48.680;8.890;2023-12-22T14:18:32;0.20;;;0.20;;
26303;SDS011;70693;48.680;8.890;2023-12-22T14:20:57;0.40;;;0.30;;
26303;SDS011;70693;48.680;8.890;2023-12-22T14:23:24;1.98;;;0.30;;
26303;SDS011;70693;48.680;8.890;2023-12-22T14:25:50;0.40;;;0.30;;
26303;SDS011;70693;48.680;8.890;2023-12-22T14:28:15;0.50;;;0.30;;
26303;SDS011;70693;48.680;8.890;2023-12-22T14:30:41;0.30;;;0.20;;
26303;SDS011;70693;48.680;8.890;2023-12-22T14:33:07;0.50;;;0.40;;
26303;SDS011;70693;48.680;8.890;2023-12-22T14:35:33;0.63;;;0.30;;
26303;SDS011;70693;48.680;8.890;2023-12-22T14:37:58;1.30;;;0.40;;
26303;SDS011;70693;48.680;8.890;2023-12-22T14:40:24;0.73;;;0.50;;
26303;SDS011;70693;48.680;8.890;2023-12-22T14:42:50;0.40;;;0.30;;
26303;SDS011;70693;48.680;8.890;2023-12-22T14:45:15;0.65;;;0.30;;
26303;SDS011;70693;48.680;8.890;2023-12-22T14:47:41;0.50;;;0.30;;
26303;SDS011;70693;48.680;8.890;2023-12-22T14:50:07;0.63;;;0.32;;